sensor_id;sensor_type;location;lat;lon;timestamp;pressure;altitude;pressure_sealevel;temperature;humidity
26978;BME280;56314;48.088;11.642;2023-03-03T00:02:16;95493.13;;;0.83;89.92
26978;BME280;56314;48.088;11.642;2023-03-03T00:04:42;95489.50;;;0.87;90.36
26978;BME280;56314;48.088;11.642;2023-03-03T00:07:07;95483.41;;;0.89;90.40
26978;BME280;56314;48.088;11.642;2023-03-03T00:09:32;95479.75;;;0.95;90.07
26978;BME280;56314;48.088;11.642;2023-03-03T00:11:59;95485.66;;;0.97;88.54
26978;BME280;56314;48.088;11.642;2023-03-03T00:14:31;95484.22;;;0.90;89.26
26978;BME280;56314;48.088;11.642;2023-03-03T00:16:59;95483.94;;;0.98;88.58
26978;BME280;56314;48.088;11.642;2023-03-03T00:19:25;95484.84;;;0.73;89.03
26978;BME280;56314;48.088;11.642;2023-03-03T00:21:51;95488.16;;;0.76;88.82
26978;BME280;56314;48.088;11.642;2023-03-03T00:24:22;95481.94;;;0.82;88.17
26978;BME280;56314;48.088;11.642;2023-03-03T00:26:56;95479.75;;;0.71;88.19
26978;BME280;56314;48.088;11.642;2023-03-03T00:29:28;95485.59;;;0.76;88.24
26978;BME280;56314;48.088;11.642;2023-03-03T00:32:07;95481.19;;;0.79;86.97
26978;BME280;56314;48.088;11.642;2023-03-03T00:34:34;95474.44;;;0.74;87.69
26978;BME280;56314;48.088;11.642;2023-03-03T00:37:00;95480.66;;;0.70;87.71
26978;BME280;56314;48.088;11.642;2023-03-03T00:39:36;95482.81;;;0.57;88.22
26978;BME280;56314;48.088;11.642;2023-03-03T00:42:12;95482.81;;;0.57;89.25
26978;BME280;56314;48.088;11.642;2023-03-03T00:44:55;95488.97;;;0.55;90.21
26978;BME280;56314;48.088;11.642;2023-03-03T00:47:37;95485.47;;;0.56;90.71
26978;BME280;56314;48.088;11.642;2023-03-03T00:52:34;95482.66;;;0.62;90.06
26978;BME280;56314;48.088;11.642;2023-03-03T00:55:00;95493.00;;;0.62;89.80
26978;BME280;56314;48.088;11.642;2023-03-03T00:57:26;95493.13;;;0.59;90.23
26978;BME280;56314;48.088;11.642;2023-03-03T00:59:51;95487.72;;;0.65;89.91
26978;BME280;56314;48.088;11.642;2023-03-03T01:02:16;95497.22;;;0.65;90.12
26978;BME280;56314;48.088;11.642;2023-03-03T01:04:44;95499.75;;;0.66;89.44
26978;BME280;56314;48.088;11.642;2023-03-03T01:07:12;95496.47;;;0.61;89.59
26978;BME280;56314;48.088;11.642;2023-03-03T01:09:38;95502.41;;;0.65;88.20
26978;BME280;56314;48.088;11.642;2023-03-03T01:12:03;95500.19;;;0.54;89.15
26978;BME280;56314;48.088;11.642;2023-03-03T01:14:29;95493.34;;;0.53;90.26
26978;BME280;56314;48.088;11.642;2023-03-03T01:16:54;95502.25;;;0.44;90.66
26978;BME280;56314;48.088;11.642;2023-03-03T01:19:20;95496.00;;;0.50;90.03
26978;BME280;56314;48.088;11.642;2023-03-03T01:21:45;95497.78;;;0.49;90.98
26978;BME280;56314;48.088;11.642;2023-03-03T01:24:10;95499.63;;;0.45;90.15
26978;BME280;56314;48.088;11.642;2023-03-03T01:26:36;95493.78;;;0.40;91.03
26978;BME280;56314;48.088;11.642;2023-03-03T01:29:01;95495.28;;;0.46;90.91
26978;BME280;56314;48.088;11.642;2023-03-03T01:31:26;95488.25;;;0.50;90.51
26978;BME280;56314;48.088;11.642;2023-03-03T01:33:52;95483.53;;;0.37;90.04
26978;BME280;56314;48.088;11.642;2023-03-03T01:36:22;95485.84;;;0.45;90.42
26978;BME280;56314;48.088;11.642;2023-03-03T01:38:48;95481.28;;;0.53;90.43
26978;BME280;56314;48.088;11.642;2023-03-03T01:41:13;95482.59;;;0.40;90.48
26978;BME280;56314;48.088;11.642;2023-03-03T01:43:43;95478.28;;;0.40;90.37
26978;BME280;56314;48.088;11.642;2023-03-03T01:48:44;95470.63;;;0.37;90.38
26978;BME280;56314;48.088;11.642;2023-03-03T01:51:28;95471.75;;;0.30;89.32
26978;BME280;56314;48.088;11.642;2023-03-03T01:53:58;95471.75;;;0.30;89.77
26978;BME280;56314;48.088;11.642;2023-03-03T01:56:28;95472.13;;;0.19;89.77
26978;BME280;56314;48.088;11.642;2023-03-03T01:59:08;95466.31;;;0.12;89.87
26978;BME280;56314;48.088;11.642;2023-03-03T02:01:35;95466.44;;;0.09;90.59
26978;BME280;56314;48.088;11.642;2023-03-03T02:04:01;95474.06;;;0.12;91.31
26978;BME280;56314;48.088;11.642;2023-03-03T02:06:31;95471.78;;;0.05;91.70
26978;BME280;56314;48.088;11.642;2023-03-03T02:09:06;95475.91;;;0.09;91.66
26978;BME280;56314;48.088;11.642;2023-03-03T02:11:36;95477.03;;;0.02;91.37
26978;BME280;56314;48.088;11.642;2023-03-03T02:14:02;95471.19;;;0.22;91.17
26978;BME280;56314;48.088;11.642;2023-03-03T02:16:27;95473.47;;;0.06;91.50
26978;BME280;56314;48.088;11.642;2023-03-03T02:18:53;95470.75;;;0.09;91.61
26978;BME280;56314;48.088;11.642;2023-03-03T02:21:23;95475.91;;;0.09;90.71
26978;BME280;56314;48.088;11.642;2023-03-03T02:26:41;95472.44;;;0.10;91.15
26978;BME280;56314;48.088;11.642;2023-03-03T02:29:09;95474.13;;;0.11;91.24
26978;BME280;56314;48.088;11.642;2023-03-03T02:31:34;95470.28;;;0.23;90.79
26978;BME280;56314;48.088;11.642;2023-03-03T02:34:01;95477.50;;;0.13;90.58
26978;BME280;56314;48.088;11.642;2023-03-03T02:36:32;95477.84;;;0.04;90.49
26978;BME280;56314;48.088;11.642;2023-03-03T02:44:25;95482.06;;;-0.21;91.88
26978;BME280;56314;48.088;11.642;2023-03-03T02:46:52;95478.69;;;-0.23;92.09
26978;BME280;56314;48.088;11.642;2023-03-03T02:49:21;95480.19;;;-0.16;92.26
26978;BME280;56314;48.088;11.642;2023-03-03T02:51:47;95479.66;;;-0.25;92.83
26978;BME280;56314;48.088;11.642;2023-03-03T02:54:14;95477.91;;;-0.25;92.45
26978;BME280;56314;48.088;11.642;2023-03-03T02:56:40;95468.59;;;-0.29;92.75
26978;BME280;56314;48.088;11.642;2023-03-03T02:59:05;95470.81;;;-0.18;92.09
26978;BME280;56314;48.088;11.642;2023-03-03T03:01:31;95470.84;;;-0.20;92.17
26978;BME280;56314;48.088;11.642;2023-03-03T03:04:03;95475.69;;;-0.10;91.80
26978;BME280;56314;48.088;11.642;2023-03-03T03:06:30;95469.13;;;-0.19;91.73
26978;BME280;56314;48.088;11.642;2023-03-03T03:08:55;95466.59;;;-0.21;91.67
26978;BME280;56314;48.088;11.642;2023-03-03T03:11:21;95466.66;;;-0.22;91.21
26978;BME280;56314;48.088;11.642;2023-03-03T03:13:46;95466.25;;;-0.37;91.30
26978;BME280;56314;48.088;11.642;2023-03-03T03:16:11;95459.25;;;-0.33;91.13
26978;BME280;56314;48.088;11.642;2023-03-03T03:18:37;95474.56;;;-0.28;91.16
26978;BME280;56314;48.088;11.642;2023-03-03T03:21:07;95474.69;;;-0.32;91.39
26978;BME280;56314;48.088;11.642;2023-03-03T03:23:33;95464.16;;;-0.25;90.68
26978;BME280;56314;48.088;11.642;2023-03-03T03:25:59;95466.69;;;-0.24;91.17
26978;BME280;56314;48.088;11.642;2023-03-03T03:28:24;95460.50;;;-0.18;91.20
26978;BME280;56314;48.088;11.642;2023-03-03T03:30:50;95461.66;;;-0.27;91.77
26978;BME280;56314;48.088;11.642;2023-03-03T03:33:15;95464.97;;;-0.23;91.46
26978;BME280;56314;48.088;11.642;2023-03-03T03:35:41;95472.75;;;-0.25;91.55
26978;BME280;56314;48.088;11.642;2023-03-03T03:38:10;95479.34;;;-0.16;91.58
26978;BME280;56314;48.088;11.642;2023-03-03T03:40:36;95478.97;;;-0.05;91.50
26978;BME280;56314;48.088;11.642;2023-03-03T03:43:03;95481.66;;;-0.08;91.42
26978;BME280;56314;48.088;11.642;2023-03-03T03:45:29;95485.13;;;-0.09;92.00
26978;BME280;56314;48.088;11.642;2023-03-03T03:47:54;95476.25;;;-0.01;92.09
26978;BME280;56314;48.088;11.642;2023-03-03T03:50:20;95478.34;;;-0.12;92.15
26978;BME280;56314;48.088;11.642;2023-03-03T03:52:45;95475.84;;;-0.15;92.82
26978;BME280;56314;48.088;11.642;2023-03-03T03:55:10;95470.81;;;0.07;92.32
26978;BME280;56314;48.088;11.642;2023-03-03T03:57:36;95474.81;;;0.16;93.05
26978;BME280;56314;48.088;11.642;2023-03-03T04:00:03;95478.41;;;0.12;92.56
26978;BME280;56314;48.088;11.642;2023-03-03T04:02:28;95472.66;;;0.04;92.25
26978;BME280;56314;48.088;11.642;2023-03-03T04:04:54;95471.81;;;0.03;93.32
26978;BME280;56314;48.088;11.642;2023-03-03T04:07:19;95479.09;;;0.17;93.91
26978;BME280;56314;48.088;11.642;2023-03-03T04:09:44;95471.13;;;0.23;93.91
26978;BME280;56314;48.088;11.642;2023-03-03T04:12:10;95467.38;;;0.32;92.86
26978;BME280;56314;48.088;11.642;2023-03-03T04:14:36;95464.91;;;0.29;92.52
26978;BME280;56314;48.088;11.642;2023-03-03T04:17:02;95471.69;;;0.32;92.27
26978;BME280;56314;48.088;11.642;2023-03-03T04:19:27;95468.94;;;0.36;92.53
26978;BME280;56314;48.088;11.642;2023-03-03T04:21:52;95475.50;;;0.45;92.18
26978;BME280;56314;48.088;11.642;2023-03-03T04:24:18;95474.44;;;0.51;92.45
26978;BME280;56314;48.088;11.642;2023-03-03T04:26:44;95482.38;;;0.46;92.09
26978;BME280;56314;48.088;11.642;2023-03-03T04:29:09;95479.25;;;0.61;92.01
26978;BME280;56314;48.088;11.642;2023-03-03T04:31:34;95476.59;;;0.63;91.46
26978;BME280;56314;48.088;11.642;2023-03-03T04:34:00;95474.06;;;0.61;91.41
26978;BME280;56314;48.088;11.642;2023-03-03T04:36:25;95478.28;;;0.64;91.38
26978;BME280;56314;48.088;11.642;2023-03-03T04:38:50;95482.94;;;0.54;91.49
26978;BME280;56314;48.088;11.642;2023-03-03T04:41:16;95482.78;;;0.59;92.39
26978;BME280;56314;48.088;11.642;2023-03-03T04:43:42;95489.69;;;0.58;91.83
26978;BME280;56314;48.088;11.642;2023-03-03T04:46:07;95481.13;;;0.80;91.21
26978;BME280;56314;48.088;11.642;2023-03-03T04:48:32;95474.28;;;0.79;90.97
26978;BME280;56314;48.088;11.642;2023-03-03T04:50:58;95480.88;;;0.64;90.50
26978;BME280;56314;48.088;11.642;2023-03-03T04:53:23;95464.38;;;0.67;91.36
26978;BME280;56314;48.088;11.642;2023-03-03T04:55:52;95474.69;;;0.68;91.61
26978;BME280;56314;48.088;11.642;2023-03-03T04:58:18;95469.28;;;0.74;90.90
26978;BME280;56314;48.088;11.642;2023-03-03T05:00:53;95472.91;;;0.70;91.03
26978;BME280;56314;48.088;11.642;2023-03-03T05:03:18;95478.00;;;0.72;91.70
26978;BME280;56314;48.088;11.642;2023-03-03T05:05:46;95477.94;;;0.73;91.11
26978;BME280;56314;48.088;11.642;2023-03-03T05:08:12;95472.75;;;0.73;90.92
26978;BME280;56314;48.088;11.642;2023-03-03T05:10:37;95470.75;;;0.82;91.15
26978;BME280;56314;48.088;11.642;2023-03-03T05:13:03;95470.63;;;0.85;91.33
26978;BME280;56314;48.088;11.642;2023-03-03T05:15:29;95468.34;;;0.77;91.55
26978;BME280;56314;48.088;11.642;2023-03-03T05:17:54;95474.63;;;0.70;91.53
26978;BME280;56314;48.088;11.642;2023-03-03T05:20:21;95472.16;;;0.67;91.91
26978;BME280;56314;48.088;11.642;2023-03-03T05:22:46;95468.97;;;0.84;92.76
26978;BME280;56314;48.088;11.642;2023-03-03T05:25:11;95468.50;;;0.72;91.48
26978;BME280;56314;48.088;11.642;2023-03-03T05:27:37;95478.78;;;0.74;92.82
26978;BME280;56314;48.088;11.642;2023-03-03T05:30:03;95471.59;;;0.82;91.93
26978;BME280;56314;48.088;11.642;2023-03-03T05:32:28;95479.63;;;0.74;92.25
26978;BME280;56314;48.088;11.642;2023-03-03T05:34:54;95478.34;;;0.86;92.61
26978;BME280;56314;48.088;11.642;2023-03-03T05:37:19;95475.50;;;0.92;91.83
26978;BME280;56314;48.088;11.642;2023-03-03T05:39:44;95479.31;;;0.84;91.91
26978;BME280;56314;48.088;11.642;2023-03-03T05:42:13;95480.19;;;0.83;92.45
26978;BME280;56314;48.088;11.642;2023-03-03T05:44:38;95485.84;;;0.92;92.26
26978;BME280;56314;48.088;11.642;2023-03-03T05:47:04;95489.41;;;0.90;92.54
26978;BME280;56314;48.088;11.642;2023-03-03T05:49:29;95492.78;;;0.92;92.11
26978;BME280;56314;48.088;11.642;2023-03-03T05:51:55;95500.25;;;1.00;92.42
26978;BME280;56314;48.088;11.642;2023-03-03T05:54:20;95500.06;;;1.04;92.18
26978;BME280;56314;48.088;11.642;2023-03-03T05:56:45;95499.47;;;0.98;92.50
26978;BME280;56314;48.088;11.642;2023-03-03T05:59:11;95505.00;;;1.11;91.64
26978;BME280;56314;48.088;11.642;2023-03-03T06:01:36;95504.53;;;1.01;91.72
26978;BME280;56314;48.088;11.642;2023-03-03T06:04:01;95507.84;;;1.04;91.55
26978;BME280;56314;48.088;11.642;2023-03-03T06:06:26;95502.16;;;0.95;92.63
26978;BME280;56314;48.088;11.642;2023-03-03T06:08:52;95500.06;;;1.04;93.28
26978;BME280;56314;48.088;11.642;2023-03-03T06:11:18;95504.53;;;1.01;92.25
26978;BME280;56314;48.088;11.642;2023-03-03T06:13:43;95504.56;;;0.99;92.59
26978;BME280;56314;48.088;11.642;2023-03-03T06:16:09;95503.44;;;1.06;92.75
26978;BME280;56314;48.088;11.642;2023-03-03T06:18:34;95510.59;;;1.22;92.58
26978;BME280;56314;48.088;11.642;2023-03-03T06:20:59;95505.84;;;1.11;92.31
26978;BME280;56314;48.088;11.642;2023-03-03T06:23:25;95510.31;;;1.07;92.41
26978;BME280;56314;48.088;11.642;2023-03-03T06:25:50;95511.06;;;1.10;93.11
26978;BME280;56314;48.088;11.642;2023-03-03T06:28:17;95525.47;;;1.17;92.75
26978;BME280;56314;48.088;11.642;2023-03-03T06:30:42;95526.47;;;1.13;92.96
26978;BME280;56314;48.088;11.642;2023-03-03T06:33:07;95525.78;;;1.31;92.73
26978;BME280;56314;48.088;11.642;2023-03-03T06:35:33;95531.00;;;1.30;92.65
26978;BME280;56314;48.088;11.642;2023-03-03T06:37:58;95535.28;;;1.31;92.26
26978;BME280;56314;48.088;11.642;2023-03-03T06:40:23;95533.56;;;1.31;92.24
26978;BME280;56314;48.088;11.642;2023-03-03T06:42:49;95525.00;;;1.29;92.79
26978;BME280;56314;48.088;11.642;2023-03-03T06:45:14;95530.81;;;1.34;92.90
26978;BME280;56314;48.088;11.642;2023-03-03T06:47:40;95527.22;;;1.38;92.21
26978;BME280;56314;48.088;11.642;2023-03-03T06:50:07;95539.00;;;1.46;92.54
26978;BME280;56314;48.088;11.642;2023-03-03T06:52:32;95534.03;;;1.41;92.49
26978;BME280;56314;48.088;11.642;2023-03-03T06:55:00;95532.16;;;1.45;92.24
26978;BME280;56314;48.088;11.642;2023-03-03T06:57:32;95537.41;;;1.43;92.66
26978;BME280;56314;48.088;11.642;2023-03-03T07:00:18;95533.84;;;1.46;92.99
26978;BME280;56314;48.088;11.642;2023-03-03T07:02:55;95545.84;;;1.48;92.34
26978;BME280;56314;48.088;11.642;2023-03-03T07:05:23;95540.41;;;1.54;92.14
26978;BME280;56314;48.088;11.642;2023-03-03T07:07:49;95540.28;;;1.58;92.56
26978;BME280;56314;48.088;11.642;2023-03-03T07:10:23;95542.97;;;1.56;91.54
26978;BME280;56314;48.088;11.642;2023-03-03T07:12:48;95547.94;;;1.61;92.47
26978;BME280;56314;48.088;11.642;2023-03-03T07:15:22;95547.88;;;1.62;91.24
26978;BME280;56314;48.088;11.642;2023-03-03T07:17:51;95541.13;;;1.58;92.14
26978;BME280;56314;48.088;11.642;2023-03-03T07:20:21;95548.59;;;1.66;91.29
26978;BME280;56314;48.088;11.642;2023-03-03T07:22:47;95549.31;;;1.69;92.09
26978;BME280;56314;48.088;11.642;2023-03-03T07:25:33;95552.69;;;1.72;91.88
26978;BME280;56314;48.088;11.642;2023-03-03T07:28:10;95554.16;;;1.79;91.97
26978;BME280;56314;48.088;11.642;2023-03-03T07:30:38;95560.25;;;1.76;90.92
26978;BME280;56314;48.088;11.642;2023-03-03T07:33:04;95566.22;;;1.78;91.02
26978;BME280;56314;48.088;11.642;2023-03-03T07:35:40;95567.84;;;1.81;91.10
26978;BME280;56314;48.088;11.642;2023-03-03T07:38:16;95566.00;;;1.84;91.38
26978;BME280;56314;48.088;11.642;2023-03-03T07:40:50;95570.28;;;1.86;91.38
26978;BME280;56314;48.088;11.642;2023-03-03T07:43:29;95576.06;;;1.92;90.82
26978;BME280;56314;48.088;11.642;2023-03-03T07:46:18;95577.69;;;1.95;90.19
26978;BME280;56314;48.088;11.642;2023-03-03T07:48:47;95577.59;;;1.96;90.34
26978;BME280;56314;48.088;11.642;2023-03-03T07:51:35;95582.13;;;1.91;89.91
26978;BME280;56314;48.088;11.642;2023-03-03T07:54:29;95584.72;;;1.91;89.91
26978;BME280;56314;48.088;11.642;2023-03-03T07:59:59;95590.44;;;1.99;90.63
26978;BME280;56314;48.088;11.642;2023-03-03T08:02:43;95588.38;;;2.08;90.36
26978;BME280;56314;48.088;11.642;2023-03-03T08:05:29;95586.25;;;2.18;90.28
26978;BME280;56314;48.088;11.642;2023-03-03T08:08:34;95590.34;;;2.23;89.79
26978;BME280;56314;48.088;11.642;2023-03-03T08:11:06;95593.53;;;2.30;89.47
26978;BME280;56314;48.088;11.642;2023-03-03T08:13:35;95591.41;;;2.40;89.20
26978;BME280;56314;48.088;11.642;2023-03-03T08:16:35;95591.84;;;2.50;88.24
26978;BME280;56314;48.088;11.642;2023-03-03T08:19:04;95590.75;;;2.55;87.52
26978;BME280;56314;48.088;11.642;2023-03-03T08:21:29;95587.72;;;2.66;86.96
26978;BME280;56314;48.088;11.642;2023-03-03T08:23:56;95584.09;;;2.70;86.37
26978;BME280;56314;48.088;11.642;2023-03-03T08:26:23;95578.34;;;2.83;86.16
26978;BME280;56314;48.088;11.642;2023-03-03T08:28:50;95577.09;;;2.91;85.58
26978;BME280;56314;48.088;11.642;2023-03-03T08:31:15;95578.31;;;3.03;84.30
26978;BME280;56314;48.088;11.642;2023-03-03T08:33:46;95578.59;;;3.16;83.37
26978;BME280;56314;48.088;11.642;2023-03-03T08:36:12;95577.56;;;3.20;82.42
26978;BME280;56314;48.088;11.642;2023-03-03T08:38:38;95583.19;;;3.30;82.14
26978;BME280;56314;48.088;11.642;2023-03-03T08:41:04;95585.22;;;3.43;83.07
26978;BME280;56314;48.088;11.642;2023-03-03T08:43:30;95586.41;;;3.54;82.61
26978;BME280;56314;48.088;11.642;2023-03-03T08:45:58;95590.38;;;3.62;81.34
26978;BME280;56314;48.088;11.642;2023-03-03T08:48:25;95579.94;;;3.63;79.99
26978;BME280;56314;48.088;11.642;2023-03-03T08:50:51;95588.78;;;3.59;79.83
26978;BME280;56314;48.088;11.642;2023-03-03T08:53:17;95589.47;;;3.63;79.87
26978;BME280;56314;48.088;11.642;2023-03-03T08:55:43;95591.94;;;3.66;79.88
26978;BME280;56314;48.088;11.642;2023-03-03T08:58:09;95594.19;;;3.74;79.37
26978;BME280;56314;48.088;11.642;2023-03-03T09:00:34;95599.16;;;3.78;78.76
26978;BME280;56314;48.088;11.642;2023-03-03T09:03:00;95602.81;;;3.74;78.76
26978;BME280;56314;48.088;11.642;2023-03-03T09:05:26;95601.00;;;3.76;79.77
26978;BME280;56314;48.088;11.642;2023-03-03T09:07:52;95605.91;;;3.82;79.96
26978;BME280;56314;48.088;11.642;2023-03-03T09:10:21;95606.28;;;3.92;79.37
26978;BME280;56314;48.088;11.642;2023-03-03T09:12:52;95607.63;;;4.01;78.33
26978;BME280;56314;48.088;11.642;2023-03-03T09:15:24;95603.06;;;4.06;78.32
26978;BME280;56314;48.088;11.642;2023-03-03T09:17:50;95602.78;;;4.30;77.57
26978;BME280;56314;48.088;11.642;2023-03-03T09:20:35;95604.47;;;4.31;76.91
26978;BME280;56314;48.088;11.642;2023-03-03T09:23:23;95600.97;;;4.32;77.21
26978;BME280;56314;48.088;11.642;2023-03-03T09:25:50;95603.88;;;4.43;75.41
26978;BME280;56314;48.088;11.642;2023-03-03T09:30:52;95602.84;;;4.63;74.83
26978;BME280;56314;48.088;11.642;2023-03-03T09:33:28;95601.78;;;4.68;75.16
26978;BME280;56314;48.088;11.642;2023-03-03T09:36:22;95601.69;;;4.69;74.01
26978;BME280;56314;48.088;11.642;2023-03-03T09:38:48;95611.81;;;4.75;73.42
26978;BME280;56314;48.088;11.642;2023-03-03T09:47:05;95617.47;;;4.84;72.15
26978;BME280;56314;48.088;11.642;2023-03-03T10:00:49;95629.50;;;5.20;71.59
26978;BME280;56314;48.088;11.642;2023-03-03T10:06:28;95645.00;;;5.39;70.40
26978;BME280;56314;48.088;11.642;2023-03-03T10:17:14;95632.41;;;5.47;70.38
26978;BME280;56314;48.088;11.642;2023-03-03T10:20:19;95643.28;;;5.55;68.29
26978;BME280;56314;48.088;11.642;2023-03-03T10:22:55;95640.97;;;5.49;69.39
26978;BME280;56314;48.088;11.642;2023-03-03T10:26:07;95640.56;;;5.41;69.46
26978;BME280;56314;48.088;11.642;2023-03-03T10:34:53;95651.06;;;5.39;69.92
26978;BME280;56314;48.088;11.642;2023-03-03T10:37:39;95651.59;;;5.46;69.71
26978;BME280;56314;48.088;11.642;2023-03-03T10:43:41;95647.63;;;5.55;68.79
26978;BME280;56314;48.088;11.642;2023-03-03T10:57:03;95627.41;;;6.08;68.01
26978;BME280;56314;48.088;11.642;2023-03-03T11:03:19;95627.16;;;6.29;66.19
26978;BME280;56314;48.088;11.642;2023-03-03T11:07:52;95635.28;;;6.39;66.50
26978;BME280;56314;48.088;11.642;2023-03-03T11:16:22;95637.03;;;6.54;65.08
26978;BME280;56314;48.088;11.642;2023-03-03T11:37:14;95642.66;;;6.62;65.35
26978;BME280;56314;48.088;11.642;2023-03-03T11:39:46;95637.25;;;6.66;64.94
26978;BME280;56314;48.088;11.642;2023-03-03T11:42:20;95643.34;;;6.66;64.23
26978;BME280;56314;48.088;11.642;2023-03-03T11:44:53;95634.97;;;6.75;64.59
26978;BME280;56314;48.088;11.642;2023-03-03T11:47:24;95634.97;;;6.75;64.20
26978;BME280;56314;48.088;11.642;2023-03-03T11:52:39;95624.75;;;6.87;63.96
26978;BME280;56314;48.088;11.642;2023-03-03T11:57:51;95601.47;;;7.13;62.65
26978;BME280;56314;48.088;11.642;2023-03-03T12:00:27;95602.47;;;7.10;61.88
26978;BME280;56314;48.088;11.642;2023-03-03T12:05:38;95600.06;;;7.36;61.17
26978;BME280;56314;48.088;11.642;2023-03-03T12:08:37;95595.69;;;7.51;61.12
26978;BME280;56314;48.088;11.642;2023-03-03T12:11:14;95601.38;;;7.58;60.49
26978;BME280;56314;48.088;11.642;2023-03-03T12:14:01;95591.84;;;7.57;60.96
26978;BME280;56314;48.088;11.642;2023-03-03T12:16:43;95589.94;;;7.73;60.38
26978;BME280;56314;48.088;11.642;2023-03-03T12:25:20;95590.03;;;7.86;60.24
26978;BME280;56314;48.088;11.642;2023-03-03T12:36:04;95588.00;;;8.04;59.70
26978;BME280;56314;48.088;11.642;2023-03-03T12:39:35;95587.94;;;8.19;59.51
26978;BME280;56314;48.088;11.642;2023-03-03T12:41:42;95587.72;;;8.09;58.02
26978;BME280;56314;48.088;11.642;2023-03-03T12:46:47;95591.78;;;8.13;58.49
26978;BME280;56314;48.088;11.642;2023-03-03T12:49:15;95584.94;;;7.97;58.65
26978;BME280;56314;48.088;11.642;2023-03-03T12:51:52;95583.56;;;7.92;57.84
26978;BME280;56314;48.088;11.642;2023-03-03T13:02:59;95578.59;;;8.29;58.22
26978;BME280;56314;48.088;11.642;2023-03-03T13:05:58;95579.53;;;8.28;57.26
26978;BME280;56314;48.088;11.642;2023-03-03T13:19:30;95573.06;;;8.87;56.25
26978;BME280;56314;48.088;11.642;2023-03-03T13:22:01;95579.75;;;8.91;55.54
26978;BME280;56314;48.088;11.642;2023-03-03T13:24:42;95574.00;;;8.86;55.91
26978;BME280;56314;48.088;11.642;2023-03-03T13:27:13;95576.19;;;8.92;56.06
26978;BME280;56314;48.088;11.642;2023-03-03T13:32:22;95568.03;;;9.22;54.66
26978;BME280;56314;48.088;11.642;2023-03-03T13:35:13;95563.94;;;9.05;54.96
26978;BME280;56314;48.088;11.642;2023-03-03T13:37:48;95570.03;;;9.06;55.22
26978;BME280;56314;48.088;11.642;2023-03-03T13:43:02;95578.00;;;9.17;54.68
26978;BME280;56314;48.088;11.642;2023-03-03T13:46:04;95574.34;;;9.07;54.38
26978;BME280;56314;48.088;11.642;2023-03-03T14:07:56;95543.25;;;9.90;51.46
26978;BME280;56314;48.088;11.642;2023-03-03T14:10:29;95542.84;;;9.83;51.55
26978;BME280;56314;48.088;11.642;2023-03-03T14:13:24;95535.47;;;9.88;52.79
26978;BME280;56314;48.088;11.642;2023-03-03T14:18:57;95526.59;;;9.78;52.26
26978;BME280;56314;48.088;11.642;2023-03-03T14:21:38;95523.88;;;9.79;52.07
26978;BME280;56314;48.088;11.642;2023-03-03T14:24:17;95519.53;;;9.67;51.56
26978;BME280;56314;48.088;11.642;2023-03-03T14:26:57;95521.00;;;9.58;53.27
26978;BME280;56314;48.088;11.642;2023-03-03T14:34:37;95515.44;;;9.63;52.31
26978;BME280;56314;48.088;11.642;2023-03-03T14:39:50;95530.50;;;9.22;54.00
26978;BME280;56314;48.088;11.642;2023-03-03T14:42:34;95524.75;;;9.17;54.09
26978;BME280;56314;48.088;11.642;2023-03-03T14:45:18;95526.44;;;8.92;53.06
26978;BME280;56314;48.088;11.642;2023-03-03T14:47:45;95527.38;;;8.78;54.03
26978;BME280;56314;48.088;11.642;2023-03-03T14:50:33;95532.72;;;8.63;54.86
26978;BME280;56314;48.088;11.642;2023-03-03T14:53:36;95530.91;;;8.51;55.57
26978;BME280;56314;48.088;11.642;2023-03-03T14:56:27;95532.09;;;8.60;55.95
26978;BME280;56314;48.088;11.642;2023-03-03T14:59:14;95536.25;;;8.50;56.00
26978;BME280;56314;48.088;11.642;2023-03-03T15:01:41;95539.34;;;8.42;55.72
26978;BME280;56314;48.088;11.642;2023-03-03T15:06:50;95531.13;;;8.21;56.84
26978;BME280;56314;48.088;11.642;2023-03-03T15:11:52;95530.16;;;8.09;56.66
26978;BME280;56314;48.088;11.642;2023-03-03T15:14:19;95528.81;;;8.16;57.23
26978;BME280;56314;48.088;11.642;2023-03-03T15:16:45;95529.13;;;8.11;57.36
26978;BME280;56314;48.088;11.642;2023-03-03T15:21:54;95528.81;;;8.16;57.22
26978;BME280;56314;48.088;11.642;2023-03-03T15:24:38;95534.50;;;8.23;56.41
26978;BME280;56314;48.088;11.642;2023-03-03T15:27:11;95537.78;;;8.39;57.17
26978;BME280;56314;48.088;11.642;2023-03-03T15:30:07;95535.38;;;8.36;57.13
26978;BME280;56314;48.088;11.642;2023-03-03T15:38:13;95538.09;;;8.35;56.94
26978;BME280;56314;48.088;11.642;2023-03-03T15:40:48;95538.91;;;8.22;55.87
26978;BME280;56314;48.088;11.642;2023-03-03T15:43:36;95537.75;;;7.99;56.99
26978;BME280;56314;48.088;11.642;2023-03-03T15:48:50;95537.81;;;7.84;57.42
26978;BME280;56314;48.088;11.642;2023-03-03T15:56:59;95543.47;;;7.64;58.41
26978;BME280;56314;48.088;11.642;2023-03-03T16:02:17;95535.28;;;7.55;58.66
26978;BME280;56314;48.088;11.642;2023-03-03T16:04:54;95538.09;;;7.52;58.66
26978;BME280;56314;48.088;11.642;2023-03-03T16:07:30;95542.66;;;7.49;58.99
26978;BME280;56314;48.088;11.642;2023-03-03T16:10:21;95544.06;;;7.40;58.33
26978;BME280;56314;48.088;11.642;2023-03-03T16:15:42;95544.66;;;7.31;59.33
26978;BME280;56314;48.088;11.642;2023-03-03T16:23:28;95553.53;;;7.14;59.24
26978;BME280;56314;48.088;11.642;2023-03-03T16:26:09;95555.38;;;7.12;59.55
26978;BME280;56314;48.088;11.642;2023-03-03T16:29:13;95561.66;;;7.09;59.77
26978;BME280;56314;48.088;11.642;2023-03-03T16:32:09;95563.69;;;7.04;60.30
26978;BME280;56314;48.088;11.642;2023-03-03T16:37:32;95565.16;;;6.93;60.67
26978;BME280;56314;48.088;11.642;2023-03-03T16:40:10;95568.25;;;6.86;61.10
26978;BME280;56314;48.088;11.642;2023-03-03T16:42:35;95573.47;;;6.86;61.57
26978;BME280;56314;48.088;11.642;2023-03-03T17:00:54;95585.03;;;6.51;61.75
26978;BME280;56314;48.088;11.642;2023-03-03T17:03:50;95588.00;;;6.45;62.41
26978;BME280;56314;48.088;11.642;2023-03-03T17:06:30;95589.09;;;6.41;62.64
26978;BME280;56314;48.088;11.642;2023-03-03T17:20:06;95603.53;;;6.16;64.35
26978;BME280;56314;48.088;11.642;2023-03-03T17:23:01;95602.22;;;6.09;63.92